CW4167 Weather Reports


time (UTC)temp
C
wind
direction
speed
KPH
gust
KPH
rain 1hr
cm
rain 24hr
cm
rain mn
cm
humidity
%
barometer
mb
20210518213204 9 207 0.0 0.0 0.00 0.00 0.00 85 1008.5
20210518212704 9 200 0.0 0.0 0.00 0.00 0.00 85 1008.5
20210518212205 9 198 0.0 0.0 0.00 0.00 0.00 85 1008.5
20210518211704 10 200 0.0 1.6 0.00 0.00 0.00 85 1008.5
20210518211205 10 213 0.0 0.0 0.00 0.00 0.00 85 1008.5
20210518210705 10 217 0.0 0.0 0.00 0.00 0.00 84 1008.4
20210518210205 10 214 0.0 0.0 0.00 0.00 0.00 84 1008.4
20210518205704 10 208 0.0 0.0 0.00 0.00 0.00 84 1008.3
20210518205205 10 207 0.0 0.0 0.00 0.00 0.00 84 1008.4
20210518204705 10 210 0.0 0.0 0.00 0.00 0.00 83 1008.5
20210518204205 10 194 0.0 0.0 0.00 0.00 0.00 83 1008.5
20210518203704 10 190 0.0 0.0 0.00 0.00 0.00 83 1008.5
20210518203205 10 197 0.0 0.0 0.00 0.00 0.00 82 1008.4
20210518202705 10 196 0.0 0.0 0.00 0.00 0.00 82 1008.4
20210518201704 11 194 0.0 0.0 0.00 0.00 0.00 81 1008.4
20210518201205 11 191 0.0 0.0 0.00 0.00 0.00 81 1008.3
20210518200704 11 221 0.0 0.0 0.00 0.00 0.00 81 1008.3
20210518200205 11 227 0.0 0.0 0.00 0.00 0.00 81 1008.3
20210518195205 11 216 0.0 0.0 0.00 0.00 0.00 80 1008.3
20210518194704 11 186 0.0 0.0 0.00 0.00 0.00 80 1008.2
20210518193705 11 185 0.0 0.0 0.00 0.00 0.00 79 1008.1
20210518193205 11 193 0.0 0.0 0.00 0.00 0.00 79 1008.1
20210518192704 11 228 0.0 0.0 0.00 0.00 0.00 78 1008.1
20210518191705 12 231 0.0 0.0 0.00 0.00 0.00 78 1007.9
20210518190705 12 233 0.0 0.0 0.00 0.00 0.00 78 1008.0
20210518185705 12 282 0.0 0.0 0.00 0.00 0.00 77 1008.0
20210518185204 12 272 0.0 0.0 0.00 0.00 0.00 77 1007.9
20210518184705 12 257 0.0 0.0 0.00 0.00 0.00 77 1007.9
20210518183704 12 263 0.0 1.6 0.00 0.00 0.00 76 1007.9
20210518183204 13 279 0.0 0.0 0.00 0.00 0.00 75 1007.9
20210518182704 13 285 0.0 0.0 0.00 0.00 0.00 75 1007.8
20210518182204 13 267 0.0 0.0 0.00 0.00 0.00 75 1007.8
20210518181205 13 262 0.0 0.0 0.00 0.00 0.00 74 1007.7
20210518180704 13 256 0.0 0.0 0.00 0.00 0.00 73 1007.7
20210518180205 13 280 0.0 0.0 0.00 0.00 0.00 73 1007.7
20210518174704 13 288 0.0 0.0 0.00 0.00 0.00 70 1007.6
20210518174205 13 265 0.0 8.0 0.00 0.00 0.00 70 1007.6
20210518173705 13 277 1.6 11.3 0.00 0.00 0.00 69 1007.6
20210518173204 14 276 0.0 4.8 0.00 0.00 0.00 68 1007.6
20210518172204 15 283 0.0 0.0 0.00 0.00 0.00 64 1007.6
20210518171705 15 231 0.0 4.8 0.00 0.00 0.00 64 1007.5
20210518171205 15 275 0.0 3.2 0.00 0.00 0.00 63 1007.5
20210518170704 15 262 0.0 14.5 0.00 0.00 0.00 64 1007.5
20210518165704 15 233 0.0 8.0 0.00 0.00 0.00 64 1007.4
20210518165204 15 245 1.6 16.1 0.00 0.00 0.00 65 1007.5
20210518164704 15 207 3.2 16.1 0.00 0.00 0.00 66 1007.5
20210518163204 13 256 1.6 19.3 0.00 0.00 0.00 68 1007.4
20210518162705 13 210 0.0 1.6 0.00 0.00 0.00 69 1007.4
20210518162204 13 229 0.0 1.6 0.00 0.00 0.00 68 1007.4
20210518161704 14 248 0.0 11.3 0.00 0.00 0.00 66 1007.4
20210518161204 14 205 3.2 16.1 0.00 0.00 0.00 65 1007.4
20210518160704 15 228 3.2 14.5 0.00 0.00 0.00 66 1007.4
20210518160204 15 197 0.0 3.2 0.00 0.00 0.00 66 1007.3
20210518155704 15 249 0.0 1.6 0.00 0.00 0.00 66 1007.3
20210518155205 14 203 0.0 8.0 0.00 0.00 0.00 67 1007.3
20210518154704 14 224 0.0 1.6 0.00 0.00 0.00 67 1007.3
20210518154204 14 208 0.0 1.6 0.00 0.00 0.00 68 1007.3
20210518153704 13 265 1.6 14.5 0.00 0.00 0.00 69 1007.3
20210518153204 13 153 1.6 16.1 0.00 0.00 0.00 67 1007.3
20210518151704 14 227 0.0 9.7 0.00 0.00 0.00 68 1007.2
20210518151204 13 261 0.0 9.7 0.00 0.00 0.00 67 1007.2
20210518150704 13 269 1.6 14.5 0.00 0.00 0.00 67 1007.2
20210518150205 13 237 0.0 3.2 0.00 0.00 0.00 68 1007.3
20210518145704 13 272 1.6 9.7 0.00 0.00 0.00 69 1007.3
20210518144204 13 279 0.0 1.6 0.00 0.00 0.00 70 1007.3
20210518143204 13 235 0.0 11.3 0.00 0.00 0.00 70 1007.3
20210518142704 13 264 1.6 14.5 0.00 0.00 0.00 72 1007.3
20210518141704 13 267 0.0 14.5 0.00 0.00 0.00 71 1007.3
20210518141204 13 276 0.0 9.7 0.00 0.00 0.00 73 1007.3
20210518140204 12 253 1.6 8.0 0.00 0.00 0.00 76 1007.2
20210518135704 12 271 0.0 9.7 0.00 0.00 0.00 76 1007.2
20210518135204 12 283 0.0 4.8 0.00 0.00 0.00 76 1007.3
20210518133704 12 235 4.8 16.1 0.00 0.00 0.00 74 1007.3
20210518131204 13 229 1.6 11.3 0.00 0.00 0.00 71 1007.2
20210518130704 13 229 0.0 1.6 0.00 0.00 0.00 71 1007.2
20210518130204 13 213 0.0 8.0 0.00 0.00 0.00 71 1007.2
20210518125204 13 212 0.0 9.7 0.00 0.00 0.00 71 1007.1
20210518123704 13 236 1.6 16.1 0.00 0.00 0.00 68 1007.1
20210518123205 13 236 0.0 12.9 0.00 0.00 0.00 68 1007.0
20210518122705 13 239 0.0 4.8 0.00 0.00 0.00 66 1007.0
20210518121704 13 222 0.0 3.2 0.00 0.00 0.00 64 1006.9
20210518121205 14 233 3.2 14.5 0.00 0.00 0.00 64 1006.8
20210518120704 14 244 1.6 16.1 0.00 0.00 0.00 63 1006.8
20210518114705 14 192 0.0 1.6 0.00 0.00 0.00 63 1006.7
20210518114206 15 260 0.0 11.3 0.00 0.00 0.00 63 1006.7
20210518113206 15 246 0.0 16.1 0.00 0.00 0.00 64 1006.6
20210518112705 15 274 0.0 16.1 0.00 0.00 0.00 63 1006.6
20210518111706 15 263 0.0 11.3 0.00 0.00 0.00 65 1006.6
20210518105705 14 248 0.0 3.2 0.00 0.00 0.00 66 1006.5
20210518105205 14 255 0.0 4.8 0.00 0.00 0.00 65 1006.6
20210518104706 14 265 1.6 8.0 0.00 0.00 0.00 67 1006.6
20210518103705 13 260 1.6 14.5 0.00 0.00 0.00 65 1006.6
20210518100206 14 233 0.0 3.2 0.00 0.00 0.00 68 1006.4
20210518094705 13 253 1.6 9.7 0.00 0.00 0.00 69 1006.4
20210518094205 13 303 0.0 1.6 0.00 0.00 0.00 72 1006.4
20210518093706 13 262 1.6 9.7 0.00 0.00 0.00 69 1006.4
20210518093206 13 271 1.6 9.7 0.00 0.00 0.00 71 1006.3
20210518091706 13 287 0.0 1.6 0.00 0.00 0.00 69 1006.3
20210518091205 13 272 1.6 11.3 0.00 0.00 0.00 71 1006.3
20210518090705 13 256 3.2 19.3 0.00 0.00 0.00 71 1006.3
20210518085705 13 260 0.0 4.8 0.00 0.00 0.00 69 1006.3
20210518085205 14 274 0.0 1.6 0.00 0.00 0.00 69 1006.3
20210518084706 14 241 0.0 16.1 0.00 0.00 0.00 69 1006.3
20210518084206 13 307 0.0 0.0 0.00 0.00 0.00 70 1006.3
20210518083706 13 284 0.0 3.2 0.00 0.00 0.00 71 1006.3
20210518083206 14 284 8.0 19.3 0.00 0.00 0.00 69 1006.3
20210518082706 14 279 3.2 11.3 0.00 0.00 0.00 70 1006.3
20210518081206 13 281 3.2 16.1 0.00 0.00 0.00 71 1006.3
20210518080705 13 279 0.0 4.8 0.00 0.00 0.00 73 1006.3
20210518080206 13 267 0.0 4.8 0.00 0.00 0.00 72 1006.2
20210518075705 13 272 1.6 16.1 0.00 0.00 0.00 74 1006.2
20210518075205 13 277 1.6 4.8 0.00 0.00 0.00 77 1006.2
20210518074205 12 225 0.0 1.6 0.00 0.00 0.00 78 1006.2
20210518073706 12 253 0.0 8.0 0.00 0.00 0.00 78 1006.2
20210518073205 12 277 1.6 14.5 0.00 0.00 0.00 77 1006.1
20210518072705 12 280 0.0 3.2 0.00 0.00 0.00 79 1006.1
20210518072205 12 232 0.0 1.6 0.00 0.00 0.00 81 1006.0
20210518071706 12 249 0.0 0.0 0.00 0.00 0.00 80 1006.0
20210518071206 11 286 0.0 16.1 0.00 0.00 0.00 80 1005.8
20210518070706 11 266 1.6 9.7 0.00 0.00 0.00 80 1005.8
20210518070206 11 245 1.6 14.5 0.00 0.00 0.00 82 1005.7
20210518065705 11 298 3.2 16.1 0.00 0.00 0.00 83 1005.7
20210518064705 10 278 1.6 14.5 0.00 0.00 0.00 85 1005.7
20210518064205 10 245 0.0 0.0 0.00 0.00 0.00 86 1005.6
20210518060705 10 278 0.0 0.0 0.00 0.00 0.00 87 1005.4
20210518060205 9 265 0.0 0.0 0.00 0.00 0.00 87 1005.4
20210518055205 9 273 0.0 0.0 0.00 0.00 0.00 87 1005.4
20210518054706 9 263 0.0 0.0 0.00 0.00 0.00 87 1005.1
20210518054206 9 273 0.0 0.0 0.00 0.00 0.00 87 1005.1
20210518052705 9 270 0.0 4.8 0.00 0.00 0.00 87 1005.1
20210518051705 9 263 1.6 8.0 0.00 0.00 0.00 87 1004.9
20210518051205 9 255 0.0 4.8 0.00 0.00 0.00 87 1004.9
20210518050205 9 260 0.0 0.0 0.00 0.00 0.00 87 1004.8
20210518045705 9 264 1.6 9.7 0.00 0.00 0.00 87 1004.8
20210518045206 10 282 1.6 8.0 0.00 0.00 0.00 87 1004.8
20210518043205 10 260 1.6 11.3 0.00 0.00 0.00 87 1004.6
20210518042705 10 271 0.0 0.0 0.00 0.00 0.00 87 1004.5
20210518041206 10 265 0.0 3.2 0.00 0.00 0.00 87 1004.4
20210518035705 10 281 0.0 4.8 0.00 0.00 0.00 87 1004.3
20210518035205 10 281 0.0 0.0 0.00 0.00 0.00 87 1004.3
20210518033205 9 258 0.0 1.6 0.00 0.00 0.00 87 1004.1
20210518032706 9 251 0.0 0.0 0.00 0.00 0.00 87 1004.1
20210518032205 9 218 0.0 0.0 0.00 0.00 0.00 87 1003.9
20210518031705 9 229 0.0 0.0 0.00 0.00 0.00 87 1003.9
20210518030705 9 255 0.0 1.6 0.00 0.00 0.00 87 1003.8
20210518030205 9 223 0.0 8.0 0.00 0.00 0.00 87 1003.7
20210518025705 9 209 0.0 0.0 0.00 0.00 0.00 87 1003.7
20210518025205 9 200 0.0 0.0 0.00 0.00 0.00 87 1003.7
20210518024706 9 198 0.0 0.0 0.00 0.00 0.00 87 1003.7
20210518023705 9 197 0.0 0.0 0.00 0.00 0.00 87 1003.6
20210518023206 9 197 0.0 0.0 0.00 0.00 0.00 87 1003.5
20210518022705 9 197 0.0 0.0 0.00 0.00 0.00 87 1003.5
20210518022205 9 195 0.0 0.0 0.00 0.00 0.00 87 1003.5
20210518021705 9 199 0.0 0.0 0.00 0.00 0.00 87 1003.4
20210518021205 9 199 0.0 0.0 0.00 0.00 0.00 87 1003.4
20210518020706 9 197 0.0 0.0 0.00 0.00 0.00 87 1003.4
20210518020205 9 198 0.0 0.0 0.00 0.00 0.00 87 1003.4
20210518014705 9 212 0.0 0.0 0.00 0.00 0.00 87 1003.3
20210518014206 9 212 0.0 0.0 0.00 0.00 0.00 87 1003.2
20210518013705 10 208 0.0 0.0 0.00 0.00 0.00 87 1003.2
20210518013205 10 183 0.0 0.0 0.00 0.00 0.00 87 1003.2
20210518012705 10 180 0.0 0.0 0.00 0.00 0.00 87 1003.2
20210518012205 10 178 0.0 0.0 0.00 0.00 0.00 87 1003.1
20210518011705 10 179 0.0 0.0 0.00 0.00 0.00 87 1003.1
20210518011205 10 185 0.0 0.0 0.00 0.00 0.00 87 1003.1
20210518010705 10 186 0.0 0.0 0.00 0.00 0.00 87 1003.1
20210518010206 10 206 0.0 0.0 0.00 0.00 0.00 87 1003.1
20210518004705 10 215 0.0 0.0 0.00 0.00 0.00 87 1003.0
20210518004205 10 223 0.0 0.0 0.00 0.00 0.00 87 1003.0
20210518003704 10 210 0.0 0.0 0.00 0.00 0.00 87 1003.0
20210518003205 10 144 0.0 0.0 0.00 0.00 0.00 87 1003.0
20210518002705 10 144 0.0 0.0 0.00 0.00 0.00 87 1003.0
20210518002205 10 144 0.0 0.0 0.00 0.00 0.00 87 1003.0
20210518001705 10 144 0.0 0.0 0.00 0.00 0.00 87 1003.0
20210518000205 10 144 0.0 0.0 0.00 0.00 0.00 87 1002.9
20210517235205 10 144 0.0 0.0 0.00 0.00 0.00 87 1003.0
20210517234705 10 144 0.0 0.0 0.00 0.00 0.00 87 1003.0
20210517234205 10 144 0.0 0.0 0.00 0.00 0.00 87 1002.9
20210517233705 10 144 0.0 0.0 0.00 0.00 0.00 87 1003.0
20210517233205 10 144 0.0 0.0 0.00 0.00 0.00 87 1002.9
20210517232205 10 144 0.0 0.0 0.00 0.00 0.00 87 1002.9
20210517231705 10 144 0.0 0.0 0.00 0.00 0.00 86 1003.0
20210517230705 10 146 0.0 0.0 0.00 0.00 0.00 86 1002.9
20210517230205 10 160 0.0 0.0 0.00 0.00 0.00 86 1002.9
20210517225705 10 175 0.0 0.0 0.00 0.00 0.00 86 1002.9
20210517224705 10 175 0.0 0.0 0.00 0.00 0.00 86 1002.8
20210517224205 10 168 0.0 0.0 0.00 0.00 0.00 86 1002.8
20210517223705 10 164 0.0 0.0 0.00 0.00 0.00 86 1002.8
20210517223205 10 148 0.0 0.0 0.00 0.00 0.00 86 1002.8
20210517222705 10 146 0.0 0.0 0.00 0.00 0.00 86 1002.8
20210517222205 10 144 0.0 0.0 0.00 0.00 0.00 86 1002.7
20210517221705 10 143 0.0 0.0 0.00 0.00 0.00 86 1002.7
20210517220705 10 146 0.0 0.0 0.00 0.00 0.00 86 1002.4
20210517220205 10 148 0.0 0.0 0.00 0.00 0.00 86 1002.4
20210517215705 10 150 0.0 0.0 0.00 0.00 0.00 86 1002.4